Time;durP1;ratioP1;P1;durP2;ratioP2;P2;SDS_P1;SDS_P2;PMS_P1;PMS_P2;Temp;Humidity;BMP_temperature;BMP_pressure;BME280_temperature;BME280_humidity;BME280_pressure;Samples;Min_cycle;Max_cycle;Signal;HPM_P1;HPM_P2
2021/04/14 00:00:33;;;;;;;44.10;26.62;;;;;;;9.21;95.04;98955.23;1826862;77;21478;-59
2021/04/14 00:03:03;;;;;;;49.80;28.60;;;;;;;9.18;94.96;98957.34;1826711;77;21122;-59
2021/04/14 00:05:36;;;;;;;43.68;26.70;;;;;;;9.19;94.98;98961.67;1826845;78;21178;-58
2021/04/14 00:08:06;;;;;;;51.55;28.07;;;;;;;9.18;95.00;98956.05;1826856;78;21277;-59
2021/04/14 00:10:37;;;;;;;44.67;27.87;;;;;;;9.16;95.12;98960.34;1826979;77;21150;-58
2021/04/14 00:13:10;;;;;;;47.62;25.97;;;;;;;9.15;95.26;98961.59;1827247;77;21209;-59
2021/04/14 00:15:44;;;;;;;38.88;26.45;;;;;;;9.15;94.99;98957.73;1826861;78;21083;-59
2021/04/14 00:18:13;;;;;;;49.70;27.60;;;;;;;9.15;95.11;98955.16;1826677;78;21142;-60
2021/04/14 00:20:42;;;;;;;43.65;25.77;;;;;;;9.15;95.09;98960.30;1826778;78;21300;-58
2021/04/14 00:23:11;;;;;;;44.00;26.05;;;;;;;9.16;94.95;98955.19;1823424;77;21190;-60
2021/04/14 00:25:44;;;;;;;41.00;24.72;;;;;;;9.15;94.87;98963.73;1812513;78;21158;-58
2021/04/14 00:28:12;;;;;;;40.78;23.95;;;;;;;9.16;94.72;98966.78;1801932;79;21151;-59
2021/04/14 00:30:40;;;;;;;43.73;26.40;;;;;;;9.15;94.56;98960.30;1812544;78;21107;-57
2021/04/14 00:33:08;;;;;;;43.70;25.65;;;;;;;9.13;94.72;98952.14;1812673;78;21145;-58
2021/04/14 00:35:36;;;;;;;38.55;23.92;;;;;;;9.13;94.67;98956.01;1812488;79;21286;-59
2021/04/14 00:38:06;;;;;;;38.70;22.75;;;;;;;9.12;94.63;98962.41;1812629;78;21193;-60
2021/04/14 00:40:39;;;;;;;33.60;21.75;;;;;;;9.11;94.50;98951.67;1812302;79;21186;-59
2021/04/14 00:43:14;;;;;;;32.95;20.70;;;;;;;9.12;94.42;98955.97;1812327;78;21352;-60
2021/04/14 00:45:42;;;;;;;34.53;21.35;;;;;;;9.12;94.43;98952.11;1812608;78;21152;-58
2021/04/14 00:48:11;;;;;;;33.20;20.57;;;;;;;9.10;94.56;98962.80;1812682;78;21312;-59
2021/04/14 00:50:40;;;;;;;30.40;19.30;;;;;;;9.11;94.31;98946.53;1812165;79;21151;-58
2021/04/14 00:53:10;;;;;;;34.30;20.97;;;;;;;9.12;94.07;98949.53;1812349;79;21304;-60
2021/04/14 00:55:39;;;;;;;35.03;20.40;;;;;;;9.12;93.76;98944.39;1812510;78;21233;-57
2021/04/14 00:58:09;;;;;;;34.43;19.37;;;;;;;9.16;93.46;98920.83;1812548;78;21150;-59
2021/04/14 01:00:44;;;;;;;29.37;17.90;;;;;;;9.17;93.06;98941.89;1812432;78;21763;-59
2021/04/14 01:03:23;;;;;;;27.90;18.10;;;;;;;9.20;92.66;98913.61;1812786;79;21542;-59
2021/04/14 01:05:54;;;;;;;27.62;18.65;;;;;;;9.25;92.11;98904.25;1812582;78;21265;-59
2021/04/14 01:08:24;;;;;;;31.60;20.05;;;;;;;9.33;91.36;98898.78;1812477;78;21111;-58
2021/04/14 01:10:52;;;;;;;26.62;17.62;;;;;;;9.34;91.16;98917.28;1812387;78;21570;-59
2021/04/14 01:13:21;;;;;;;31.25;18.87;;;;;;;9.34;90.83;98915.98;1815201;77;21542;-58
2021/04/14 01:15:50;;;;;;;23.95;16.97;;;;;;;9.32;90.72;98886.34;1851679;77;21580;-61
2021/04/14 01:18:29;;;;;;;27.35;18.55;;;;;;;9.40;90.70;98902.33;1851405;77;21123;-59
2021/04/14 01:20:59;;;;;;;28.90;18.52;;;;;;;9.45;90.48;98909.70;1851122;77;21146;-60
2021/04/14 01:23:31;;;;;;;28.25;18.35;;;;;;;9.48;90.13;98917.47;1852625;77;21103;-60
2021/04/14 01:26:00;;;;;;;31.55;18.57;;;;;;;9.47;90.08;98910.16;1857723;77;21111;-58
2021/04/14 01:28:38;;;;;;;28.20;18.45;;;;;;;9.45;90.06;98918.72;1858014;77;21619;-57
2021/04/14 01:31:11;;;;;;;23.67;17.20;;;;;;;9.44;89.94;98923.41;1857793;77;21106;-59
2021/04/14 01:33:40;;;;;;;26.33;16.30;;;;;;;9.47;89.96;98920.47;1857644;77;21145;-58
2021/04/14 01:36:10;;;;;;;26.40;17.52;;;;;;;9.53;89.62;98917.11;1857897;77;21157;-59
2021/04/14 01:38:39;;;;;;;24.27;16.15;;;;;;;9.56;89.53;98924.88;1853438;77;21138;-59
2021/04/14 01:41:08;;;;;;;24.43;17.07;;;;;;;9.51;89.35;98920.94;1851449;77;21276;-59
2021/04/14 01:43:36;;;;;;;23.77;16.97;;;;;;;9.47;89.35;98923.47;1851332;77;21139;-58
2021/04/14 01:46:03;;;;;;;28.75;17.77;;;;;;;9.43;89.59;98920.40;1779907;80;21296;-58
2021/04/14 01:48:33;;;;;;;25.70;17.00;;;;;;;9.42;89.55;98913.09;1851414;77;21600;-59
2021/04/14 01:51:04;;;;;;;26.17;17.15;;;;;;;9.44;89.58;98913.10;1851381;77;21134;-59
2021/04/14 01:53:33;;;;;;;30.60;17.45;;;;;;;9.47;89.56;98923.47;1851300;77;21166;-60
2021/04/14 01:56:02;;;;;;;30.30;18.00;;;;;;;9.47;89.41;98919.61;1851325;77;21177;-58
2021/04/14 01:58:31;;;;;;;24.82;17.00;;;;;;;9.44;89.35;98909.23;1851276;77;21145;-58
2021/04/14 02:01:04;;;;;;;27.22;18.70;;;;;;;9.43;89.58;98921.69;1851276;77;21151;-58
2021/04/14 02:03:37;;;;;;;26.75;17.98;;;;;;;9.44;89.64;98911.41;1851278;77;21358;-57
2021/04/14 02:06:14;;;;;;;27.05;18.27;;;;;;;9.43;89.64;98899.36;1851429;77;21142;-58
2021/04/14 02:08:43;;;;;;;28.85;18.35;;;;;;;9.45;89.73;98911.84;1779670;80;21312;-58
2021/04/14 02:11:15;;;;;;;32.93;20.32;;;;;;;9.51;89.78;98906.77;1779770;80;21719;-57
2021/04/14 02:13:44;;;;;;;;;;;;;;;9.58;89.66;98900.00;1791776;80;21303;-58
2021/04/14 02:16:20;;;;;;;30.65;19.25;;;;;;;9.64;89.43;98891.48;1789289;80;20202;-58
2021/04/14 02:18:51;;;;;;;30.23;20.12;;;;;;;9.66;89.27;98895.81;1785853;80;21304;-59
2021/04/14 02:21:22;;;;;;;29.70;20.32;;;;;;;9.66;89.17;98893.23;1789062;80;21312;-60
2021/04/14 02:23:50;;;;;;;30.48;19.90;;;;;;;9.66;89.13;98899.68;1784214;80;21688;-59
2021/04/14 02:26:22;;;;;;;29.00;18.90;;;;;;;9.65;89.03;98899.25;1851785;77;21186;-61
2021/04/14 02:28:51;;;;;;;;;;;;;;;9.53;89.36;98903.80;1782431;80;21170;-59
2021/04/14 02:31:31;;;;;;;28.83;19.48;;;;;;;9.47;89.63;98909.30;1783456;80;20458;-61
2021/04/14 02:34:10;;;;;;;28.30;18.60;;;;;;;9.44;89.85;98900.22;1779970;80;21155;-60
2021/04/14 02:36:40;;;;;;;28.87;19.73;;;;;;;9.46;89.94;98901.11;1851610;77;21153;-58
2021/04/14 02:39:11;;;;;;;;;;;;;;;9.47;89.92;98893.85;1854529;77;21154;-58
2021/04/14 02:41:40;;;;;;;31.00;19.48;;;;;;;9.47;89.96;98896.42;1851523;77;20190;-60
2021/04/14 02:44:08;;;;;;;26.02;19.17;;;;;;;9.42;90.16;98901.50;1851409;77;21305;-58
2021/04/14 02:46:35;;;;;;;27.93;19.87;;;;;;;9.38;90.35;98898.86;1851918;77;21276;-59
2021/04/14 02:49:04;;;;;;;27.90;19.77;;;;;;;9.37;90.48;98897.14;1779866;80;21149;-60
2021/04/14 02:51:33;;;;;;;30.17;19.30;;;;;;;9.35;90.55;98890.23;1779699;80;21205;-56
2021/04/14 02:54:03;;;;;;;31.25;20.10;;;;;;;9.33;90.74;98894.49;1851457;77;21789;-58
2021/04/14 02:56:31;;;;;;;27.93;18.57;;;;;;;9.24;91.21;98893.52;1851476;77;21335;-58
2021/04/14 02:59:00;;;;;;;30.70;20.43;;;;;;;9.16;91.55;98884.39;1780005;80;21154;-58
2021/04/14 03:01:29;;;;;;;31.00;19.77;;;;;;;9.16;91.80;98898.55;1779894;80;21174;-57
2021/04/14 03:03:58;;;;;;;29.77;20.23;;;;;;;9.18;92.04;98894.69;1779890;80;21173;-59
2021/04/14 03:06:26;;;;;;;27.52;19.35;;;;;;;9.16;92.20;98904.98;1779713;80;21293;-58
2021/04/14 03:08:54;;;;;;;28.52;20.12;;;;;;;9.07;92.49;98908.69;1779965;80;21311;-60
2021/04/14 03:11:22;;;;;;;30.65;18.10;;;;;;;9.02;92.79;98912.90;1779700;80;21218;-58
2021/04/14 03:13:50;;;;;;;28.85;18.57;;;;;;;8.98;92.96;98922.69;1779700;80;21336;-58
2021/04/14 03:16:18;;;;;;;29.42;19.35;;;;;;;8.96;93.10;98928.25;1851743;77;21292;-59
2021/04/14 03:18:47;;;;;;;29.72;19.10;;;;;;;8.91;93.06;98926.45;1851611;77;21328;-57
2021/04/14 03:21:15;;;;;;;29.63;19.17;;;;;;;8.86;93.07;98920.36;1851214;77;21173;-57
2021/04/14 03:23:42;;;;;;;30.12;18.15;;;;;;;8.84;93.13;98918.61;1850627;77;21157;-57
2021/04/14 03:26:10;;;;;;;25.23;17.07;;;;;;;8.80;93.06;98909.09;1759594;80;21673;-58
2021/04/14 03:28:38;;;;;;;30.77;18.55;;;;;;;8.77;93.25;98912.48;1790639;80;21636;-58
2021/04/14 03:31:05;;;;;;;29.72;18.82;;;;;;;8.75;93.19;98903.89;1759851;80;21166;-60
2021/04/14 03:33:33;;;;;;;30.80;19.62;;;;;;;8.74;92.99;98906.00;1790470;80;21221;-58
2021/04/14 03:36:05;;;;;;;27.80;16.93;;;;;;;8.73;92.98;98900.42;1759875;81;21162;-63
2021/04/14 03:38:32;;;;;;;27.48;16.73;;;;;;;8.70;92.54;98909.34;1790757;80;21711;-60
2021/04/14 03:41:01;;;;;;;25.05;16.48;;;;;;;8.68;92.30;98908.05;1759808;81;21320;-59
2021/04/14 03:43:28;;;;;;;29.55;17.35;;;;;;;8.69;92.34;98904.63;1790535;80;21201;-58
2021/04/14 03:45:58;;;;;;;24.23;17.70;;;;;;;8.70;92.17;98906.77;1759681;81;21115;-59
2021/04/14 03:48:27;;;;;;;26.12;18.02;;;;;;;8.70;92.01;98901.63;1790586;80;21154;-60
2021/04/14 03:50:55;;;;;;;29.18;16.50;;;;;;;8.70;91.63;98900.34;1759544;80;21162;-59
2021/04/14 03:53:31;;;;;;;23.87;15.48;;;;;;;8.70;91.42;98906.77;1790367;80;21312;-58
2021/04/14 03:56:08;;;;;;;24.50;16.02;;;;;;;8.69;90.74;98905.05;1759260;81;21257;-59
2021/04/14 03:58:39;;;;;;;28.80;17.62;;;;;;;8.69;90.33;98906.34;1790882;80;21573;-58
2021/04/14 04:01:11;;;;;;;28.83;17.20;;;;;;;8.72;89.72;98902.95;1716446;81;21210;-59
2021/04/14 04:03:40;;;;;;;30.02;15.98;;;;;;;8.71;88.45;98908.52;1723481;83;21164;-58
2021/04/14 04:06:08;;;;;;;24.60;14.40;;;;;;;8.73;87.36;98912.00;1723637;82;21154;-58
2021/04/14 04:08:35;;;;;;;27.13;16.85;;;;;;;8.75;87.29;98910.32;1723992;82;21254;-58
2021/04/14 04:11:04;;;;;;;27.98;17.00;;;;;;;8.76;86.64;98913.75;1723517;82;21173;-59
2021/04/14 04:13:33;;;;;;;21.42;14.05;;;;;;;8.75;85.71;98924.47;1723428;82;21190;-59
2021/04/14 04:16:01;;;;;;;26.23;15.23;;;;;;;8.74;84.78;98920.15;1723823;82;21229;-59
2021/04/14 04:18:31;;;;;;;24.52;15.50;;;;;;;8.74;84.05;98922.72;1723722;82;21189;-60
2021/04/14 04:20:59;;;;;;;18.87;13.43;;;;;;;8.75;84.05;98921.91;1712893;82;21181;-58
2021/04/14 04:23:26;;;;;;;25.77;15.15;;;;;;;8.75;83.45;98913.29;1715545;82;21154;-58
2021/04/14 04:25:55;;;;;;;24.20;14.78;;;;;;;8.75;83.33;98919.72;1792952;79;21207;-59
2021/04/14 04:28:23;;;;;;;22.25;13.38;;;;;;;8.73;83.19;98918.43;1794324;78;21134;-59
2021/04/14 04:30:51;;;;;;;26.10;13.88;;;;;;;8.73;83.09;98916.25;1794313;79;21276;-58
2021/04/14 04:33:20;;;;;;;24.75;14.65;;;;;;;8.73;82.71;98918.82;1794361;78;21138;-59
2021/04/14 04:35:48;;;;;;;22.40;13.85;;;;;;;8.73;82.68;98914.56;1794307;79;21167;-58
2021/04/14 04:38:17;;;;;;;21.80;13.95;;;;;;;8.73;80.91;98917.14;1794618;80;21142;-58
2021/04/14 04:40:45;;;;;;;23.67;14.07;;;;;;;8.72;80.13;98916.67;1794610;78;21284;-59
2021/04/14 04:43:16;;;;;;;28.47;16.02;;;;;;;8.70;80.19;98915.77;1794177;78;21102;-58
2021/04/14 04:45:44;;;;;;;23.00;12.70;;;;;;;8.70;80.05;98915.77;1794746;79;21284;-59
2021/04/14 04:48:12;;;;;;;22.95;13.48;;;;;;;8.68;78.50;98913.20;1794650;79;21146;-60
2021/04/14 04:50:40;;;;;;;28.02;13.98;;;;;;;8.70;78.59;98908.05;1794593;79;21731;-58
2021/04/14 04:53:17;;;;;;;30.92;14.50;;;;;;;8.68;77.46;98911.05;1794228;79;21150;-59
2021/04/14 04:55:46;;;;;;;27.62;13.50;;;;;;;8.69;75.63;98920.48;1794596;79;21146;-60
2021/04/14 04:58:17;;;;;;;26.75;15.28;;;;;;;8.70;75.72;98922.20;1794656;79;21142;-59
2021/04/14 05:00:46;;;;;;;36.95;16.15;;;;;;;8.68;74.12;98920.05;1794480;79;21517;-59
2021/04/14 05:03:16;;;;;;;28.17;13.68;;;;;;;8.70;74.68;98919.64;1794199;79;21209;-60
2021/04/14 05:05:45;;;;;;;26.70;13.78;;;;;;;8.68;72.41;98922.20;1794729;79;21669;-58
2021/04/14 05:08:12;;;;;;;33.00;16.37;;;;;;;8.67;71.79;98920.88;1794633;79;21193;-59
2021/04/14 05:10:40;;;;;;;29.57;15.45;;;;;;;8.68;71.86;98927.77;1794499;79;21190;-59
2021/04/14 05:13:10;;;;;;;44.35;17.73;;;;;;;8.71;71.71;98933.39;1794245;79;21182;-60
2021/04/14 05:15:40;;;;;;;30.52;14.85;;;;;;;8.72;70.91;98936.40;1805338;78;21220;-60
2021/04/14 05:18:09;;;;;;;28.12;15.53;;;;;;;8.72;70.97;98938.55;1808034;78;21354;-60
2021/04/14 05:20:39;;;;;;;24.72;14.28;;;;;;;8.71;71.05;98931.67;1808593;78;21297;-58
2021/04/14 05:23:09;;;;;;;25.25;14.75;;;;;;;8.74;70.84;98941.16;1808577;77;21203;-60
2021/04/14 05:25:42;;;;;;;27.98;14.10;;;;;;;8.74;70.63;98944.59;1810967;78;21161;-58
2021/04/14 05:28:11;;;;;;;23.32;13.05;;;;;;;8.71;69.88;98945.83;1808363;78;21302;-59
2021/04/14 05:30:40;;;;;;;29.05;15.23;;;;;;;8.67;69.37;98937.59;1810464;78;21817;-61
2021/04/14 05:33:11;;;;;;;25.08;14.55;;;;;;;8.63;69.69;98939.69;1809425;77;21245;-60
2021/04/14 05:35:40;;;;;;;25.65;13.68;;;;;;;8.61;68.89;98937.50;1809754;78;21276;-58
2021/04/14 05:38:10;;;;;;;27.07;14.43;;;;;;;8.64;69.13;98947.84;1810552;78;21129;-59
2021/04/14 05:40:39;;;;;;;23.20;13.93;;;;;;;8.62;68.26;98945.22;1809969;77;21174;-60
2021/04/14 05:43:18;;;;;;;29.15;14.00;;;;;;;8.65;67.50;98938.88;1811898;78;21272;-59
2021/04/14 05:45:49;;;;;;;22.00;14.03;;;;;;;8.71;67.87;98941.11;1740323;80;21526;-59
2021/04/14 05:48:16;;;;;;;30.48;14.98;;;;;;;8.77;66.79;98942.06;1739911;80;21140;-60
2021/04/14 05:50:44;;;;;;;27.15;15.40;;;;;;;8.83;66.85;98934.47;1742263;80;21125;-61
2021/04/14 05:53:12;;;;;;;27.45;15.85;;;;;;;8.88;65.68;98938.42;1735381;82;21223;-60
2021/04/14 05:55:39;;;;;;;27.70;15.20;;;;;;;8.94;65.67;98939.80;1757074;80;21170;-61
2021/04/14 05:58:07;;;;;;;27.75;15.70;;;;;;;8.97;65.26;98933.41;1741927;81;21178;-60
2021/04/14 06:00:34;;;;;;;29.85;15.85;;;;;;;9.01;64.82;98940.35;1745950;81;21174;-60
2021/04/14 06:03:03;;;;;;;24.77;15.50;;;;;;;9.05;64.35;98950.27;1748508;81;21222;-59
2021/04/14 06:05:31;;;;;;;33.60;16.45;;;;;;;9.07;64.08;98943.44;1756547;82;21231;-59
2021/04/14 06:07:59;;;;;;;43.55;17.60;;;;;;;9.06;64.29;98946.88;1756995;80;21142;-61
2021/04/14 06:10:27;;;;;;;37.67;16.15;;;;;;;9.11;64.91;98951.67;1756870;82;21338;-60
2021/04/14 06:12:57;;;;;;;29.77;15.08;;;;;;;9.13;64.74;98952.54;1756891;81;21097;-60
2021/04/14 06:15:33;;;;;;;34.58;15.63;;;;;;;9.16;65.02;98954.30;1756823;82;21295;-63
2021/04/14 06:18:02;;;;;;;35.95;16.50;;;;;;;9.19;65.43;98957.81;1749878;81;21541;-60
2021/04/14 06:20:33;;;;;;;33.00;15.25;;;;;;;9.22;65.43;98942.41;1741535;82;21133;-58
2021/04/14 06:23:03;;;;;;;31.12;14.73;;;;;;;9.25;64.93;98956.61;1750853;82;21284;-59
2021/04/14 06:25:36;;;;;;;35.05;16.07;;;;;;;9.28;64.85;98954.50;1771626;81;21354;-59
2021/04/14 06:28:05;;;;;;;27.45;14.30;;;;;;;9.31;65.06;98961.88;1775221;81;21232;-60
2021/04/14 06:30:36;;;;;;;30.45;14.47;;;;;;;9.26;65.04;98953.21;1777000;80;21156;-60
2021/04/14 06:33:08;;;;;;;31.35;15.85;;;;;;;9.22;65.34;98947.98;1759980;80;21213;-58
2021/04/14 06:35:36;;;;;;;28.73;14.55;;;;;;;9.19;65.86;98953.95;1766730;81;21206;-60
2021/04/14 06:38:05;;;;;;;30.37;15.60;;;;;;;9.20;66.27;98954.80;1763154;81;21272;-58
2021/04/14 06:43:38;;;;;;;30.05;15.80;;;;;;;9.18;67.01;98952.62;1804328;79;21122;-60
2021/04/14 06:46:29;;;;;;;26.80;15.03;;;;;;;9.21;67.29;98954.84;1799821;78;21147;-60
2021/04/14 06:49:27;;;;;;;33.73;16.55;;;;;;;9.18;66.61;98954.77;1803966;79;21119;-60
2021/04/14 06:52:18;;;;;;;32.88;17.35;;;;;;;9.23;67.26;98954.42;1799379;79;21182;-58
2021/04/14 06:55:07;;;;;;;32.77;17.40;;;;;;;9.28;67.40;98955.36;1799307;79;21537;-59
2021/04/14 06:57:42;;;;;;;31.02;16.32;;;;;;;9.32;67.25;98958.44;1818450;77;21167;-60
2021/04/14 07:00:32;;;;;;;32.25;17.27;;;;;;;9.33;67.22;98956.30;1815919;78;21118;-61
2021/04/14 07:03:20;;;;;;;26.60;15.70;;;;;;;9.32;67.18;98958.44;1794899;77;21172;-61
2021/04/14 07:06:00;;;;;;;25.52;16.00;;;;;;;9.33;67.60;98956.30;1794878;77;21746;-60
2021/04/14 07:08:32;;;;;;;32.88;16.82;;;;;;;9.31;66.65;98961.88;1822557;77;21114;-63
2021/04/14 07:11:04;;;;;;;31.60;17.55;;;;;;;9.31;67.47;98959.30;1777861;81;21157;-62
2021/04/14 07:13:36;;;;;;;27.87;16.73;;;;;;;9.34;67.66;98970.93;1789212;80;21194;-61
2021/04/14 07:16:39;;;;;;;31.75;18.02;;;;;;;9.37;67.72;98958.95;1749192;81;21643;-60
2021/04/14 07:19:20;;;;;;;25.57;16.30;;;;;;;9.41;67.88;98962.00;1815928;79;21162;-60
2021/04/14 07:22:14;;;;;;;31.55;15.53;;;;;;;9.45;67.11;98955.64;1818419;78;21577;-60
2021/04/14 07:24:58;;;;;;;27.30;15.83;;;;;;;9.55;66.38;98962.66;1818133;78;21095;-61
2021/04/14 07:27:53;;;;;;;29.27;16.82;;;;;;;9.62;66.68;98963.63;1818105;78;21099;-60
2021/04/14 07:30:29;;;;;;;23.00;15.08;;;;;;;9.63;66.32;98955.47;1818400;77;21107;-59
2021/04/14 07:33:38;;;;;;;22.05;15.28;;;;;;;9.76;65.67;98953.08;1818550;79;21588;-59
2021/04/14 07:36:36;;;;;;;27.35;15.90;;;;;;;9.84;65.39;98966.06;1818480;78;21321;-60
2021/04/14 07:39:28;;;;;;;25.95;14.45;;;;;;;9.86;64.77;98977.27;1721980;82;21620;-60
2021/04/14 07:42:09;;;;;;;27.02;15.63;;;;;;;9.80;63.54;98972.47;1722175;82;21363;-61
2021/04/14 07:45:12;;;;;;;26.73;15.95;;;;;;;9.86;64.29;98969.97;1788915;78;21300;-60
2021/04/14 07:47:48;;;;;;;28.92;15.55;;;;;;;9.97;63.68;98965.41;1818595;77;21297;-60
2021/04/14 07:50:23;;;;;;;23.67;15.98;;;;;;;9.97;63.10;98970.97;1818530;77;21143;-60
2021/04/14 07:52:53;;;;;;;26.85;15.72;;;;;;;10.02;63.47;98969.31;1818425;79;21616;-61
2021/04/14 07:55:26;;;;;;;26.05;16.40;;;;;;;10.15;63.20;98969.94;1818492;79;21707;-59
2021/04/14 07:57:56;;;;;;;31.93;17.50;;;;;;;10.33;62.93;98973.60;1818208;78;21147;-60
2021/04/14 08:00:41;;;;;;;32.67;18.60;;;;;;;10.47;62.02;98982.38;1817562;77;21304;-60
2021/04/14 08:03:28;;;;;;;31.07;16.75;;;;;;;10.49;61.64;98971.66;1818485;77;21182;-60
2021/04/14 08:06:20;;;;;;;36.45;17.98;;;;;;;10.58;61.96;98969.20;1818254;79;21201;-60
2021/04/14 08:08:49;;;;;;;27.32;16.48;;;;;;;10.78;61.14;98976.27;1818241;78;21151;-59
2021/04/14 08:11:31;;;;;;;24.77;15.50;;;;;;;10.94;60.14;98968.23;1827016;78;21133;-60
2021/04/14 08:14:13;;;;;;;24.60;14.50;;;;;;;11.16;59.78;98966.73;1818293;78;21601;-60
2021/04/14 08:16:47;;;;;;;29.50;15.85;;;;;;;11.36;59.32;98965.17;1802184;79;21308;-60
2021/04/14 08:19:29;;;;;;;34.20;16.82;;;;;;;11.58;59.06;98962.77;1786185;80;21633;-60
2021/04/14 08:22:08;;;;;;;30.08;15.78;;;;;;;11.93;58.71;98954.83;1786157;79;21190;-59
2021/04/14 08:24:54;;;;;;;36.23;16.87;;;;;;;12.32;57.66;98972.67;1784904;79;21299;-60
2021/04/14 08:27:35;;;;;;;34.83;17.70;;;;;;;12.47;56.79;98964.10;1793876;80;21565;-60
2021/04/14 08:30:20;;;;;;;31.52;16.57;;;;;;;12.76;56.40;98955.11;1794518;79;21223;-60
2021/04/14 08:33:02;;;;;;;29.82;14.65;;;;;;;13.18;55.17;98965.10;1794566;79;21332;-60
2021/04/14 08:35:42;;;;;;;24.95;14.80;;;;;;;13.65;53.84;98965.53;1793539;79;21544;-60
2021/04/14 08:38:16;;;;;;;24.30;13.90;;;;;;;14.30;52.17;98961.03;1794179;80;21569;-61
2021/04/14 08:40:53;;;;;;;21.68;13.48;;;;;;;14.87;50.85;98959.91;1792960;79;21312;-60
2021/04/14 08:43:40;;;;;;;18.42;13.13;;;;;;;15.35;49.28;98957.37;1794523;79;21316;-60
2021/04/14 08:46:32;;;;;;;33.00;14.98;;;;;;;15.04;49.41;98957.20;1794575;78;22228;-61
2021/04/14 08:49:08;;;;;;;25.45;15.13;;;;;;;14.34;51.07;98952.78;1794341;80;21280;-61
2021/04/14 08:51:41;;;;;;;21.85;14.87;;;;;;;13.85;52.19;98956.86;1794300;80;21327;-60
2021/04/14 08:54:15;;;;;;;26.33;15.23;;;;;;;13.41;53.35;98956.06;1794367;79;21156;-60
2021/04/14 08:56:43;;;;;;;25.75;15.18;;;;;;;13.17;54.32;98948.24;1794148;79;21604;-60
2021/04/14 08:59:13;;;;;;;24.12;14.60;;;;;;;13.02;55.12;98946.06;1794791;79;21597;-61
2021/04/14 09:01:42;;;;;;;20.68;13.72;;;;;;;12.94;54.66;98933.55;1794588;79;21154;-60
2021/04/14 09:04:12;;;;;;;22.37;13.72;;;;;;;12.98;51.70;98944.80;1794617;79;21114;-60
2021/04/14 09:06:45;;;;;;;23.18;14.10;;;;;;;13.27;50.80;98929.27;1794117;78;21292;-61
2021/04/14 09:09:19;;;;;;;18.15;12.45;;;;;;;13.87;50.65;98926.16;1794107;80;21150;-64
2021/04/14 09:12:00;;;;;;;20.37;14.38;;;;;;;14.38;49.35;98922.06;1794147;80;21288;-62
2021/04/14 09:14:31;;;;;;;25.25;13.85;;;;;;;14.81;47.70;98932.23;1785895;78;21207;-61
2021/04/14 09:17:06;;;;;;;20.68;12.45;;;;;;;14.86;46.40;98935.66;1779970;78;21564;-62
2021/04/14 09:19:50;;;;;;;25.08;13.83;;;;;;;14.59;45.97;98935.83;1776839;80;21315;-61
2021/04/14 09:22:24;;;;;;;25.95;14.40;;;;;;;14.43;46.96;98931.12;1776995;80;21193;-61
2021/04/14 09:25:08;;;;;;;18.92;12.70;;;;;;;14.40;46.92;98922.92;1777216;79;21181;-60
2021/04/14 09:27:46;;;;;;;18.87;12.68;;;;;;;14.69;47.44;98912.83;1774499;79;21319;-61
2021/04/14 09:30:32;;;;;;;20.12;14.35;;;;;;;14.88;45.98;98920.93;1775226;80;21267;-60
2021/04/14 09:33:08;;;;;;;24.50;14.60;;;;;;;14.56;46.03;98912.04;1771568;80;21243;-61
2021/04/14 09:35:55;;;;;;;23.35;13.58;;;;;;;14.24;46.72;98914.77;1780015;80;21169;-61
2021/04/14 09:38:35;;;;;;;24.07;14.47;;;;;;;14.11;47.83;98912.22;1764603;79;21176;-61
2021/04/14 09:41:29;;;;;;;21.50;13.88;;;;;;;14.12;47.33;98909.21;1769379;80;21338;-60
2021/04/14 09:44:12;;;;;;;25.00;14.73;;;;;;;14.08;47.17;98916.13;1788137;79;21174;-62
2021/04/14 09:46:57;;;;;;;23.12;14.73;;;;;;;13.96;48.28;98903.20;1772962;80;21743;-61
2021/04/14 09:49:39;;;;;;;22.52;13.78;;;;;;;14.08;48.10;98897.96;1725634;82;21292;-62
2021/04/14 09:52:30;;;;;;;18.37;12.15;;;;;;;14.10;48.02;98891.04;1773949;80;21199;-62
2021/04/14 09:55:20;;;;;;;20.45;12.73;;;;;;;14.08;47.79;98865.52;1765729;80;21181;-60
2021/04/14 09:57:50;;;;;;;18.42;12.50;;;;;;;14.30;47.83;98881.00;1757247;81;21153;-60
2021/04/14 10:00:29;;;;;;;18.57;12.25;;;;;;;14.58;47.68;98879.14;1756850;81;21178;-60
2021/04/14 10:03:02;;;;;;;22.20;12.68;;;;;;;14.84;47.11;98874.19;1724208;82;21160;-61
2021/04/14 10:05:31;;;;;;;18.12;11.57;;;;;;;15.00;46.90;98878.82;1702894;84;21275;-61
2021/04/14 10:08:02;;;;;;;19.40;11.93;;;;;;;15.19;46.62;98875.20;1703679;83;21173;-60
2021/04/14 10:10:41;;;;;;;22.50;12.35;;;;;;;15.30;46.07;98883.75;1703597;84;21189;-61
2021/04/14 10:13:11;;;;;;;21.23;11.70;;;;;;;15.34;46.63;98871.56;1729553;81;21719;-61
2021/04/14 10:15:43;;;;;;;19.55;10.88;;;;;;;15.55;46.35;98864.01;1746237;82;21163;-60
2021/04/14 10:18:31;;;;;;;17.67;12.03;;;;;;;15.72;46.05;98867.32;1737542;81;21221;-61
2021/04/14 10:21:20;;;;;;;22.00;11.55;;;;;;;15.68;45.73;98855.19;1716632;83;21471;-61
2021/04/14 10:24:02;;;;;;;19.12;11.90;;;;;;;15.54;45.92;98868.77;1741883;81;21271;-60
2021/04/14 10:26:32;;;;;;;18.00;11.20;;;;;;;15.32;46.79;98857.74;1751264;82;21165;-60
2021/04/14 10:29:02;;;;;;;26.57;13.35;;;;;;;15.39;47.37;98855.48;1788945;80;21170;-61
2021/04/14 10:31:30;;;;;;;23.30;13.00;;;;;;;15.46;46.78;98863.64;1774761;79;21280;-61
2021/04/14 10:34:22;;;;;;;20.35;12.68;;;;;;;15.36;47.33;98858.97;1775033;79;21552;-60
2021/04/14 10:36:58;;;;;;;17.00;11.83;;;;;;;15.31;47.47;98852.10;1853725;76;22236;-62
2021/04/14 10:39:31;;;;;;;23.18;12.45;;;;;;;15.26;47.98;98849.54;1809010;78;21160;-62
2021/04/14 10:42:16;;;;;;;17.07;11.55;;;;;;;15.57;47.82;98846.20;1822401;78;21312;-61
2021/04/14 10:44:45;;;;;;;21.12;12.43;;;;;;;15.92;47.32;98841.48;1809946;78;21260;-60
2021/04/14 10:47:28;;;;;;;23.98;13.28;;;;;;;16.25;46.81;98843.63;1812947;78;21137;-62
2021/04/14 10:50:08;;;;;;;25.92;15.55;;;;;;;16.53;45.63;98837.17;1810294;77;21114;-61
2021/04/14 10:52:35;;;;;;;24.12;14.80;;;;;;;16.45;45.09;98840.74;1809177;78;21110;-61
2021/04/14 10:55:12;;;;;;;23.75;14.90;;;;;;;16.30;45.11;98847.92;1811411;77;21083;-61
2021/04/14 10:57:46;;;;;;;23.73;14.13;;;;;;;16.13;45.55;98845.13;1812582;78;21086;-61
2021/04/14 11:00:31;;;;;;;21.02;13.95;;;;;;;16.25;45.72;98833.66;1812863;78;21259;-62
2021/04/14 11:03:12;;;;;;;21.07;14.20;;;;;;;16.48;45.07;98849.80;1809706;78;21559;-61
2021/04/14 11:05:48;;;;;;;23.23;15.00;;;;;;;16.44;44.45;98848.59;1811519;77;21198;-61
2021/04/14 11:08:17;;;;;;;25.00;13.40;;;;;;;16.24;45.01;98840.62;1833383;77;21122;-60
2021/04/14 11:10:46;;;;;;;19.98;13.15;;;;;;;16.30;45.30;98833.16;1801968;78;21122;-61
2021/04/14 11:13:19;;;;;;;22.77;14.83;;;;;;;16.57;45.01;98831.04;1794977;80;21279;-61
2021/04/14 11:15:50;;;;;;;21.40;13.70;;;;;;;16.75;44.09;98829.89;1804781;78;21170;-59
2021/04/14 11:18:35;;;;;;;18.65;13.60;;;;;;;16.82;43.97;98830.24;1807143;78;21177;-63
2021/04/14 11:21:08;;;;;;;25.72;14.63;;;;;;;16.83;43.71;98831.50;1812006;78;21146;-61
2021/04/14 11:23:41;;;;;;;21.52;13.93;;;;;;;16.83;43.50;98835.86;1807795;78;21118;-61
2021/04/14 11:26:21;;;;;;;31.77;13.98;;;;;;;16.81;43.48;98831.11;1814267;78;21323;-60
2021/04/14 11:28:52;;;;;;;23.73;14.05;;;;;;;16.79;43.67;98827.24;1818183;78;21154;-61
2021/04/14 11:31:34;;;;;;;22.63;12.40;;;;;;;16.62;44.20;98826.62;1818365;78;21118;-61
2021/04/14 11:34:28;;;;;;;25.57;12.10;;;;;;;16.52;44.49;98825.89;1799349;78;21150;-60
2021/04/14 11:37:20;;;;;;;21.35;12.15;;;;;;;16.49;44.17;98822.04;1796256;79;21170;-61
2021/04/14 11:40:01;;;;;;;19.55;11.40;;;;;;;16.50;44.46;98810.72;1744100;81;21111;-62
2021/04/14 11:42:53;;;;;;;18.87;11.10;;;;;;;16.66;44.38;98801.80;1735361;81;21129;-61
2021/04/14 11:45:35;;;;;;;19.60;10.82;;;;;;;17.02;44.39;98804.70;1790318;79;21175;-61
2021/04/14 11:48:13;;;;;;;18.82;9.40;;;;;;;17.25;42.93;98799.06;1802782;79;21260;-60
2021/04/14 11:50:46;;;;;;;24.90;10.23;;;;;;;17.22;42.81;98803.45;1811399;78;21099;-61
2021/04/14 11:53:31;;;;;;;18.55;9.83;;;;;;;17.20;43.03;98800.01;1796488;79;21091;-61
2021/04/14 11:56:02;;;;;;;15.32;9.80;;;;;;;17.27;42.63;98804.23;1802317;79;21280;-60
2021/04/14 11:58:41;;;;;;;19.62;10.30;;;;;;;17.16;42.84;98790.55;1781271;79;21628;-60